Time;durP1;ratioP1;P1;durP2;ratioP2;P2;SDS_P1;SDS_P2;PMS_P1;PMS_P2;Temp;Humidity;BMP_temperature;BMP_pressure;BME280_temperature;BME280_humidity;BME280_pressure;Samples;Min_cycle;Max_cycle;Signal;HPM_P1;HPM_P2
2021/11/23 00:01:12;;;;;;;5.03;4.53;;;;;;;3.98;89.43;102021.97;5157515;27;20870;-76
2021/11/23 00:03:38;;;;;;;6.17;5.57;;;;;;;4.08;90.09;102001.56;5157316;27;20235;-76
2021/11/23 00:06:05;;;;;;;9.27;5.17;;;;;;;4.09;89.27;102026.59;5157790;27;20199;-76
2021/11/23 00:08:31;;;;;;;5.87;5.23;;;;;;;4.10;88.99;102025.75;5157288;27;20194;-75
2021/11/23 00:10:58;;;;;;;8.67;4.80;;;;;;;4.10;88.94;102043.84;5153889;27;20198;-75
2021/11/23 00:13:26;;;;;;;7.47;5.27;;;;;;;4.08;88.63;102048.09;5154865;27;20214;-76
2021/11/23 00:15:52;;;;;;;5.37;4.87;;;;;;;4.10;88.63;102051.59;5159776;27;20194;-75
2021/11/23 00:18:18;;;;;;;4.93;4.50;;;;;;;4.18;88.85;102032.03;5156129;27;20601;-75
2021/11/23 00:20:46;;;;;;;5.47;4.47;;;;;;;4.26;89.09;102040.06;5152356;27;20243;-76
2021/11/23 00:23:13;;;;;;;5.40;4.90;;;;;;;4.28;89.65;102041.88;5158316;27;20636;-75
2021/11/23 00:25:40;;;;;;;6.40;4.70;;;;;;;4.33;89.30;102039.44;5155268;27;20199;-76
2021/11/23 00:28:06;;;;;;;5.77;4.50;;;;;;;4.32;89.45;102035.97;5153521;27;20194;-75
2021/11/23 00:30:34;;;;;;;5.70;5.20;;;;;;;4.30;89.06;102040.22;5155337;27;20194;-76
2021/11/23 00:33:01;;;;;;;5.33;4.83;;;;;;;4.34;88.86;102047.25;5147155;27;20218;-75
2021/11/23 00:35:28;;;;;;;5.47;5.03;;;;;;;4.37;88.53;102060.25;5153480;27;20567;-75
2021/11/23 00:37:55;;;;;;;5.70;4.60;;;;;;;4.45;88.62;102057.06;5154425;27;20202;-75
2021/11/23 00:40:24;;;;;;;5.57;4.73;;;;;;;4.12;88.83;102053.44;5153565;27;20595;-76
2021/11/23 00:42:51;;;;;;;5.40;4.73;;;;;;;4.24;89.26;102034.88;5153159;27;20229;-76
2021/11/23 00:45:18;;;;;;;7.23;4.97;;;;;;;4.30;88.91;102029.88;5153666;27;20230;-76
2021/11/23 00:47:46;;;;;;;6.70;4.90;;;;;;;4.31;88.88;102029.03;5153308;27;20198;-75
2021/11/23 00:50:14;;;;;;;5.23;4.83;;;;;;;4.30;89.15;102021.22;5152993;27;20657;-75
2021/11/23 00:52:41;;;;;;;5.67;4.23;;;;;;;4.25;89.34;102008.16;5149661;27;20795;-75
2021/11/23 00:55:09;;;;;;;5.07;4.67;;;;;;;4.22;89.22;102005.47;5145261;27;20244;-76
2021/11/23 00:57:35;;;;;;;5.33;4.90;;;;;;;4.18;88.77;102011.38;5153657;27;20194;-76
2021/11/23 01:00:01;;;;;;;4.70;4.30;;;;;;;4.15;88.94;102016.47;5153010;27;20261;-75
2021/11/23 01:02:28;;;;;;;7.87;4.73;;;;;;;3.95;88.45;102019.25;5153063;27;20235;-75
2021/11/23 01:04:55;;;;;;;5.90;4.53;;;;;;;4.00;88.46;101995.28;5152765;27;20229;-75
2021/11/23 01:07:22;;;;;;;5.50;4.00;;;;;;;3.93;88.87;101991.63;5152992;27;20221;-75
2021/11/23 01:09:49;;;;;;;10.83;4.80;;;;;;;3.80;88.25;102003.22;5153669;27;20778;-75
2021/11/23 01:12:15;;;;;;;6.47;3.97;;;;;;;3.79;88.85;101991.16;5153075;27;20272;-75
2021/11/23 01:14:42;;;;;;;4.80;4.40;;;;;;;3.71;88.79;101982.28;5154702;27;20253;-76
2021/11/23 01:17:08;;;;;;;4.27;3.77;;;;;;;3.62;88.64;101975.06;5152856;27;20218;-75
2021/11/23 01:19:35;;;;;;;4.67;4.27;;;;;;;3.44;89.29;101943.47;5152281;27;20241;-75
2021/11/23 01:22:03;;;;;;;4.83;4.47;;;;;;;3.44;89.15;101925.41;5152862;27;20242;-75
2021/11/23 01:24:29;;;;;;;6.10;5.50;;;;;;;3.37;89.76;101939.81;5152983;27;20707;-75
2021/11/23 01:26:55;;;;;;;6.77;5.87;;;;;;;3.26;89.92;101923.06;5153365;27;20201;-75
2021/11/23 01:29:22;;;;;;;8.23;6.60;;;;;;;3.24;89.76;101915.25;5152314;27;20567;-75
2021/11/23 01:31:48;;;;;;;7.30;6.57;;;;;;;3.32;90.15;101925.84;5152879;27;20218;-75
2021/11/23 01:34:16;;;;;;;7.87;7.07;;;;;;;3.37;89.59;101935.53;5152635;27;20249;-75
2021/11/23 01:36:42;;;;;;;7.53;6.90;;;;;;;3.35;89.52;101941.44;5153762;27;20206;-75
2021/11/23 01:39:10;;;;;;;7.90;7.30;;;;;;;3.43;89.10;101941.69;5152368;27;20677;-75
2021/11/23 01:41:37;;;;;;;7.10;6.47;;;;;;;3.40;89.03;101964.84;5152532;27;20234;-75
2021/11/23 01:44:04;;;;;;;10.47;7.67;;;;;;;3.33;89.54;101967.22;5152970;27;20229;-75
2021/11/23 01:46:31;;;;;;;9.90;8.90;;;;;;;3.25;89.50;101973.81;5154453;27;20665;-76
2021/11/23 01:48:58;;;;;;;8.97;7.73;;;;;;;3.11;89.97;101963.00;5152256;27;20250;-75
2021/11/23 01:51:24;;;;;;;9.87;8.40;;;;;;;3.20;90.02;101951.25;5152052;27;20250;-75
2021/11/23 01:53:51;;;;;;;11.70;8.90;;;;;;;3.15;90.00;101945.88;5152542;27;20697;-76
2021/11/23 01:56:19;;;;;;;9.47;8.67;;;;;;;3.22;90.45;101940.13;5152460;27;20245;-75
2021/11/23 01:58:45;;;;;;;9.03;8.23;;;;;;;3.26;89.86;101948.88;5152820;27;20619;-76
2021/11/23 02:01:12;;;;;;;10.37;8.23;;;;;;;3.34;89.83;101940.56;5152138;27;20295;-76
2021/11/23 02:03:40;;;;;;;7.83;7.03;;;;;;;3.43;89.65;101950.34;5152412;27;20302;-76
2021/11/23 02:06:07;;;;;;;9.10;8.30;;;;;;;3.35;89.40;101950.06;5152216;27;20242;-76
2021/11/23 02:08:33;;;;;;;9.17;8.27;;;;;;;3.37;89.61;101952.72;5152485;27;20792;-75
2021/11/23 02:11:00;;;;;;;9.23;8.43;;;;;;;3.36;89.73;101945.78;5152216;27;20222;-75
2021/11/23 02:13:29;;;;;;;9.90;9.03;;;;;;;3.24;89.69;101942.78;5143944;27;20241;-75
2021/11/23 02:15:56;;;;;;;10.30;8.80;;;;;;;3.34;90.13;101937.97;5152711;27;20294;-76
2021/11/23 02:18:24;;;;;;;11.30;10.40;;;;;;;3.44;89.74;101943.47;5152505;27;20706;-75
2021/11/23 02:20:52;;;;;;;9.90;9.03;;;;;;;3.55;90.05;101939.56;5155878;27;20599;-76
2021/11/23 02:23:20;;;;;;;9.43;8.57;;;;;;;3.58;89.62;101944.81;5155688;27;20645;-76
2021/11/23 02:25:47;;;;;;;9.97;9.17;;;;;;;3.68;89.22;101957.19;5156036;27;20286;-75
2021/11/23 02:28:14;;;;;;;10.13;9.17;;;;;;;3.74;88.76;101972.91;5155966;27;20250;-76
2021/11/23 02:30:44;;;;;;;9.90;9.10;;;;;;;3.77;88.69;101975.59;5155214;27;20213;-76
2021/11/23 02:33:11;;;;;;;9.17;8.40;;;;;;;3.82;89.00;101962.84;5155628;27;20642;-75
2021/11/23 02:35:37;;;;;;;10.37;9.37;;;;;;;3.82;88.53;101965.41;5155518;27;20837;-75
2021/11/23 02:38:05;;;;;;;10.17;9.27;;;;;;;3.55;88.77;101962.81;5155803;27;20744;-75
2021/11/23 02:40:31;;;;;;;9.97;9.17;;;;;;;3.70;89.64;101934.03;5155954;27;20257;-76
2021/11/23 02:42:58;;;;;;;13.30;8.73;;;;;;;3.76;89.41;101918.72;5155458;27;20874;-76
2021/11/23 02:45:27;;;;;;;9.47;8.60;;;;;;;3.68;89.88;101925.34;5155709;27;20248;-75
2021/11/23 02:47:55;;;;;;;10.10;9.10;;;;;;;3.76;89.56;101922.19;5155675;27;20223;-75
2021/11/23 02:50:24;;;;;;;9.70;8.80;;;;;;;3.82;89.22;101921.50;5150964;27;20206;-75
2021/11/23 02:52:52;;;;;;;9.57;8.43;;;;;;;3.91;89.53;101933.88;5148621;27;20214;-75
2021/11/23 02:55:22;;;;;;;9.77;8.87;;;;;;;3.99;89.60;101929.81;5155888;27;20231;-75
2021/11/23 02:57:49;;;;;;;9.07;8.30;;;;;;;4.04;89.85;101935.13;5155449;27;20208;-75
2021/11/23 03:00:20;;;;;;;9.60;8.67;;;;;;;4.01;89.99;101927.28;5155364;27;20681;-76
2021/11/23 03:02:47;;;;;;;12.10;8.10;;;;;;;3.95;89.92;101936.59;5155034;27;20691;-75
2021/11/23 03:05:14;;;;;;;9.73;8.43;;;;;;;3.88;89.33;101938.91;5155395;27;20220;-75
2021/11/23 03:07:41;;;;;;;9.27;8.43;;;;;;;3.97;89.50;101934.06;5155417;27;20205;-76
2021/11/23 03:10:09;;;;;;;10.00;7.90;;;;;;;4.03;89.75;101942.00;5155544;27;20197;-76
2021/11/23 03:12:38;;;;;;;9.33;8.33;;;;;;;4.00;89.00;101943.59;5154832;27;20231;-75
2021/11/23 03:15:06;;;;;;;9.10;8.27;;;;;;;4.00;89.20;101941.88;5155079;27;20749;-76
2021/11/23 03:17:32;;;;;;;9.87;8.40;;;;;;;4.09;89.28;101947.38;5155412;27;20198;-75
2021/11/23 03:19:59;;;;;;;10.37;9.03;;;;;;;4.01;89.02;101951.41;5154618;27;20243;-75
2021/11/23 03:22:25;;;;;;;11.20;8.97;;;;;;;3.93;89.32;101938.25;5154918;27;20298;-75
2021/11/23 03:24:52;;;;;;;9.63;8.80;;;;;;;3.77;90.57;101908.44;5155166;27;20251;-75
2021/11/23 03:27:18;;;;;;;10.30;9.40;;;;;;;3.66;90.62;101883.97;5154560;27;20222;-75
2021/11/23 03:29:46;;;;;;;10.03;8.90;;;;;;;3.68;91.42;101874.56;5154683;27;20251;-75
2021/11/23 03:32:13;;;;;;;10.40;9.00;;;;;;;3.68;91.32;101863.38;5154462;27;20278;-75
2021/11/23 03:34:40;;;;;;;9.17;8.47;;;;;;;3.72;92.01;101853.19;5154689;27;20713;-75
2021/11/23 03:37:08;;;;;;;9.60;8.90;;;;;;;3.78;92.02;101837.00;5154674;27;20674;-75
2021/11/23 03:39:35;;;;;;;14.90;9.37;;;;;;;3.91;92.24;101834.00;5146588;27;20720;-75
2021/11/23 03:42:02;;;;;;;15.63;10.40;;;;;;;3.94;92.51;101825.44;5154487;27;20210;-74
2021/11/23 03:44:29;;;;;;;14.90;9.07;;;;;;;3.93;92.11;101827.16;5154861;27;20225;-75
2021/11/23 03:46:57;;;;;;;10.23;9.27;;;;;;;3.91;92.24;101822.78;5154626;27;20276;-75
2021/11/23 03:49:23;;;;;;;11.20;10.20;;;;;;;3.81;92.60;101818.19;5150007;27;20230;-75
2021/11/23 03:51:49;;;;;;;10.40;9.40;;;;;;;3.84;92.64;101795.00;5154375;27;20236;-75
2021/11/23 03:54:16;;;;;;;9.40;8.60;;;;;;;3.88;92.86;101797.72;5154413;27;20245;-75
2021/11/23 03:56:43;;;;;;;11.57;9.57;;;;;;;3.98;92.60;101801.47;5154388;27;20233;-75
2021/11/23 03:59:10;;;;;;;9.37;8.67;;;;;;;4.02;92.61;101807.59;5154635;27;20230;-75
2021/11/23 04:01:36;;;;;;;10.97;9.73;;;;;;;3.88;92.71;101802.88;5153769;27;20241;-75
2021/11/23 04:04:04;;;;;;;11.70;9.63;;;;;;;3.95;93.07;101794.50;5154359;27;20250;-75
2021/11/23 04:06:31;;;;;;;10.73;9.03;;;;;;;4.05;93.06;101793.06;5154176;27;20228;-75
2021/11/23 04:08:57;;;;;;;9.63;8.73;;;;;;;4.04;92.65;101801.63;5153711;27;20616;-75
2021/11/23 04:11:23;;;;;;;11.03;9.93;;;;;;;4.01;92.41;101809.31;5154190;27;20733;-75
2021/11/23 04:13:49;;;;;;;10.13;9.23;;;;;;;3.94;93.02;101805.69;5153894;27;20251;-75
2021/11/23 04:16:17;;;;;;;11.03;10.03;;;;;;;3.99;93.26;101792.91;5154251;27;20222;-75
2021/11/23 04:18:44;;;;;;;10.13;9.23;;;;;;;3.98;93.43;101783.38;5153884;27;20258;-75
2021/11/23 04:21:12;;;;;;;11.27;10.03;;;;;;;3.96;93.31;101773.03;5152970;27;20311;-75
2021/11/23 04:23:39;;;;;;;10.80;9.87;;;;;;;4.03;93.63;101758.56;5153479;27;20253;-75
2021/11/23 04:26:05;;;;;;;10.27;9.47;;;;;;;4.12;93.71;101764.00;5153963;27;20198;-75
2021/11/23 04:28:32;;;;;;;10.80;9.83;;;;;;;4.20;93.96;101753.88;5153567;27;20248;-75
2021/11/23 04:30:58;;;;;;;12.13;10.03;;;;;;;4.12;93.40;101776.03;5153628;27;20254;-75
2021/11/23 04:33:24;;;;;;;15.03;10.37;;;;;;;4.12;93.61;101770.88;5144945;27;20652;-75
2021/11/23 04:35:51;;;;;;;11.37;10.43;;;;;;;4.13;93.75;101758.00;5153503;27;20689;-76
2021/11/23 04:38:18;;;;;;;13.13;10.30;;;;;;;4.20;93.66;101761.63;5153327;27;20579;-75
2021/11/23 04:40:45;;;;;;;10.60;9.70;;;;;;;4.06;94.17;101758.63;5153331;27;20198;-75
2021/11/23 04:43:11;;;;;;;12.60;10.20;;;;;;;3.94;94.99;101733.34;5152828;27;20254;-75
2021/11/23 04:45:39;;;;;;;12.10;11.03;;;;;;;3.93;95.62;101710.06;5153196;27;20198;-75
2021/11/23 04:48:06;;;;;;;13.20;11.43;;;;;;;3.82;96.26;101699.38;5153402;27;20197;-75
2021/11/23 04:50:34;;;;;;;23.13;14.07;;;;;;;3.76;97.41;101670.81;5152943;27;20233;-75
2021/11/23 04:53:01;;;;;;;13.30;12.20;;;;;;;3.87;97.76;101645.31;5153277;27;20218;-75
2021/11/23 04:55:29;;;;;;;13.33;12.03;;;;;;;3.87;97.71;101643.59;5153330;27;20202;-75
2021/11/23 04:57:55;;;;;;;13.60;12.33;;;;;;;3.70;98.52;101630.19;5153352;27;20667;-76
2021/11/23 05:00:22;;;;;;;13.83;12.60;;;;;;;3.58;99.51;101598.88;5153177;27;20855;-75
2021/11/23 05:02:48;;;;;;;15.20;13.57;;;;;;;3.68;100.00;101566.44;5152673;27;20322;-75
2021/11/23 05:05:16;;;;;;;13.87;12.63;;;;;;;3.70;100.00;101555.31;5153148;27;20268;-75
2021/11/23 05:07:43;;;;;;;15.13;13.73;;;;;;;3.76;100.00;101550.31;5153268;27;20251;-76
2021/11/23 05:10:11;;;;;;;14.80;12.77;;;;;;;3.76;100.00;101560.63;5153365;27;20727;-75
2021/11/23 05:12:39;;;;;;;14.33;12.93;;;;;;;3.71;100.00;101556.22;5152618;27;20194;-74
2021/11/23 05:15:07;;;;;;;16.77;12.30;;;;;;;3.73;100.00;101545.06;5144668;27;20198;-75
2021/11/23 05:17:34;;;;;;;14.10;12.77;;;;;;;3.66;100.00;101538.00;5153033;27;20230;-75
2021/11/23 05:20:00;;;;;;;14.33;12.97;;;;;;;3.69;100.00;101524.31;5152583;27;20691;-75
2021/11/23 05:22:29;;;;;;;14.23;12.90;;;;;;;3.65;100.00;101532.78;5151899;27;20243;-77
2021/11/23 05:24:56;;;;;;;15.03;12.80;;;;;;;3.68;100.00;101532.88;5152434;27;20191;-75
2021/11/23 05:27:22;;;;;;;13.47;12.37;;;;;;;3.78;100.00;101527.97;5152425;27;20240;-76
2021/11/23 05:29:50;;;;;;;13.63;12.37;;;;;;;3.69;100.00;101542.38;5152125;27;20221;-75
2021/11/23 05:32:16;;;;;;;14.13;12.73;;;;;;;3.68;100.00;101531.16;5150650;27;20198;-75
2021/11/23 05:34:42;;;;;;;15.00;13.50;;;;;;;3.68;100.00;101535.44;5152176;27;20237;-75
2021/11/23 05:37:09;;;;;;;15.67;13.70;;;;;;;3.72;100.00;101527.81;5152400;27;20217;-75
2021/11/23 05:39:36;;;;;;;15.00;13.67;;;;;;;3.73;100.00;101523.56;5152141;27;20290;-75
2021/11/23 05:42:02;;;;;;;15.90;14.40;;;;;;;3.73;100.00;101518.38;5152121;27;20241;-75
2021/11/23 05:44:29;;;;;;;28.97;17.60;;;;;;;4.09;100.00;101502.09;5152005;27;20310;-75
2021/11/23 05:46:57;;;;;;;35.00;20.60;;;;;;;4.05;100.00;101505.44;5154019;27;20226;-76
2021/11/23 05:49:23;;;;;;;16.90;15.33;;;;;;;4.23;100.00;101495.53;5148976;27;20203;-76
2021/11/23 05:51:49;;;;;;;16.83;13.70;;;;;;;4.38;100.00;101503.66;5152151;27;20186;-76
2021/11/23 05:54:16;;;;;;;13.37;12.13;;;;;;;4.48;100.00;101507.34;5156389;27;20872;-76
2021/11/23 05:56:42;;;;;;;14.07;12.73;;;;;;;4.47;100.00;101525.38;5157126;27;20197;-76
2021/11/23 05:59:08;;;;;;;13.17;11.97;;;;;;;4.21;100.00;101545.44;5156778;27;20223;-76
2021/11/23 06:01:35;;;;;;;12.43;11.43;;;;;;;4.40;100.00;101541.56;5156408;27;20230;-76
2021/11/23 06:04:03;;;;;;;12.07;11.00;;;;;;;4.19;100.00;101547.97;5156242;27;20263;-76
2021/11/23 06:06:29;;;;;;;11.10;10.20;;;;;;;4.36;100.00;101558.72;5156165;27;20221;-76
2021/11/23 06:08:55;;;;;;;12.10;11.10;;;;;;;4.24;99.77;101564.50;5156790;27;20198;-76
2021/11/23 06:11:22;;;;;;;13.97;12.73;;;;;;;4.48;100.00;101555.56;5156170;27;20222;-76
2021/11/23 06:13:48;;;;;;;12.30;11.20;;;;;;;4.35;100.00;101570.78;5156260;27;20274;-76
2021/11/23 06:16:15;;;;;;;14.10;12.60;;;;;;;4.38;99.66;101578.63;5156852;27;20194;-76
2021/11/23 06:18:42;;;;;;;11.60;10.60;;;;;;;4.61;100.00;101572.25;5156295;27;20258;-76
2021/11/23 06:21:09;;;;;;;12.00;10.90;;;;;;;4.34;99.71;101588.81;5156294;27;20194;-76
2021/11/23 06:23:36;;;;;;;13.53;12.33;;;;;;;4.37;99.78;101597.53;5156002;27;20249;-76
2021/11/23 06:26:03;;;;;;;13.60;12.30;;;;;;;4.32;99.78;101593.97;5156787;27;20214;-77
2021/11/23 06:28:30;;;;;;;14.30;12.40;;;;;;;4.35;99.89;101594.03;5156052;27;20623;-76
2021/11/23 06:30:56;;;;;;;11.97;10.93;;;;;;;4.23;99.46;101613.53;5148685;27;20194;-76
2021/11/23 06:33:24;;;;;;;12.87;11.80;;;;;;;4.03;99.64;101623.34;5155706;27;20206;-76
2021/11/23 06:35:51;;;;;;;13.17;11.40;;;;;;;4.23;100.00;101605.78;5155989;27;20207;-76
2021/11/23 06:38:18;;;;;;;12.10;11.07;;;;;;;4.13;99.95;101610.72;5155942;27;20552;-76
2021/11/23 06:40:45;;;;;;;12.30;11.30;;;;;;;4.10;100.00;101614.91;5155943;27;20569;-76
2021/11/23 06:43:11;;;;;;;13.20;12.20;;;;;;;4.06;100.00;101616.53;5155856;27;20217;-76
2021/11/23 06:45:40;;;;;;;13.60;12.57;;;;;;;3.94;100.00;101603.28;5155944;27;20262;-76
2021/11/23 06:48:09;;;;;;;13.77;12.67;;;;;;;4.03;100.00;101589.78;5156033;27;20190;-76
2021/11/23 06:50:36;;;;;;;14.40;13.03;;;;;;;4.08;100.00;101595.91;5155497;27;20779;-76
2021/11/23 06:53:04;;;;;;;13.60;12.50;;;;;;;4.11;100.00;101601.19;5155258;27;20252;-77
2021/11/23 06:55:32;;;;;;;35.37;22.93;;;;;;;4.31;100.00;101597.38;5155955;27;20194;-77
2021/11/23 06:57:59;;;;;;;13.90;12.80;;;;;;;4.29;100.00;101606.81;5155799;27;20565;-76
2021/11/23 07:00:26;;;;;;;14.13;13.03;;;;;;;4.25;100.00;101625.66;5155810;27;20198;-76
2021/11/23 07:02:52;;;;;;;14.20;13.10;;;;;;;4.25;100.00;101624.78;5155114;27;20261;-76
2021/11/23 07:05:19;;;;;;;13.63;12.43;;;;;;;4.28;100.00;101635.19;5154524;27;20200;-77
2021/11/23 07:07:46;;;;;;;15.07;13.80;;;;;;;4.39;100.00;101631.19;5156112;27;20288;-76
2021/11/23 07:10:13;;;;;;;13.50;12.27;;;;;;;4.28;100.00;101646.44;5155584;27;20242;-76
2021/11/23 07:12:41;;;;;;;13.87;12.57;;;;;;;4.21;100.00;101638.47;5155510;27;20209;-77
2021/11/23 07:15:10;;;;;;;14.70;13.40;;;;;;;4.23;100.00;101635.09;5155256;27;20629;-76
2021/11/23 07:17:36;;;;;;;15.87;14.43;;;;;;;4.21;100.00;101639.34;5155652;27;20227;-76
2021/11/23 07:20:04;;;;;;;16.63;15.30;;;;;;;4.16;100.00;101639.22;5154509;27;20210;-76
2021/11/23 07:22:30;;;;;;;17.27;15.77;;;;;;;4.05;100.00;101642.34;5155164;27;20247;-76
2021/11/23 07:24:57;;;;;;;18.73;17.20;;;;;;;4.07;100.00;101631.22;5155426;27;20198;-76
2021/11/23 07:27:23;;;;;;;17.23;15.83;;;;;;;4.23;100.00;101626.47;5155406;27;20195;-76
2021/11/23 07:29:51;;;;;;;16.33;14.93;;;;;;;4.23;100.00;101629.91;5155207;27;20723;-76
2021/11/23 07:32:17;;;;;;;16.27;14.87;;;;;;;4.33;100.00;101633.63;5154019;27;20703;-76
2021/11/23 07:34:44;;;;;;;18.03;14.47;;;;;;;4.35;100.00;101640.56;5155280;27;20250;-76
2021/11/23 07:37:10;;;;;;;16.40;14.80;;;;;;;4.16;100.00;101652.16;5154645;27;20554;-76
2021/11/23 07:39:37;;;;;;;15.53;14.30;;;;;;;4.04;100.00;101654.38;5154827;27;20610;-76
2021/11/23 07:42:05;;;;;;;16.47;15.07;;;;;;;4.09;100.00;101644.19;5154633;27;20198;-76
2021/11/23 07:44:31;;;;;;;14.93;13.63;;;;;;;4.07;100.00;101638.97;5154954;27;20221;-76
2021/11/23 07:46:59;;;;;;;16.20;14.90;;;;;;;4.04;100.00;101631.13;5154862;27;20198;-76
2021/11/23 07:49:25;;;;;;;17.53;15.83;;;;;;;4.06;100.00;101624.28;5150810;27;20206;-76
2021/11/23 07:51:52;;;;;;;17.07;15.63;;;;;;;4.10;100.00;101628.72;5154124;27;20248;-76
2021/11/23 07:54:18;;;;;;;18.07;16.67;;;;;;;4.16;100.00;101628.00;5154530;27;20261;-76
2021/11/23 07:56:44;;;;;;;17.87;16.27;;;;;;;4.12;100.00;101624.47;5154546;27;20230;-76
2021/11/23 07:59:12;;;;;;;18.47;16.77;;;;;;;4.17;100.00;101624.59;5154154;27;20256;-76
2021/11/23 08:01:39;;;;;;;17.07;15.60;;;;;;;4.18;100.00;101634.97;5146224;27;20197;-76
2021/11/23 08:04:07;;;;;;;16.40;15.00;;;;;;;4.31;100.00;101630.13;5154502;27;20248;-76
2021/11/23 08:06:34;;;;;;;15.80;14.37;;;;;;;4.30;100.00;101639.59;5153930;27;20245;-76
2021/11/23 08:09:00;;;;;;;16.07;14.77;;;;;;;4.32;100.00;101640.50;5154190;27;20790;-76
2021/11/23 08:11:26;;;;;;;15.73;14.33;;;;;;;4.36;100.00;101638.84;5154147;27;20186;-76
2021/11/23 08:13:53;;;;;;;16.20;14.90;;;;;;;4.41;100.00;101646.75;5154367;27;20241;-76
2021/11/23 08:16:20;;;;;;;15.60;14.10;;;;;;;4.47;100.00;101654.66;5154236;27;20202;-76
2021/11/23 08:18:46;;;;;;;16.50;15.00;;;;;;;4.39;100.00;101662.22;5153786;27;20245;-76
2021/11/23 08:21:14;;;;;;;16.07;14.57;;;;;;;4.43;100.00;101650.25;5150386;27;20195;-76
2021/11/23 08:23:40;;;;;;;16.47;14.83;;;;;;;4.48;100.00;101643.47;5152295;27;20311;-76
2021/11/23 08:26:07;;;;;;;16.70;14.93;;;;;;;4.53;100.00;101647.03;5154155;27;20225;-76
2021/11/23 08:28:37;;;;;;;15.50;14.07;;;;;;;4.47;100.00;101652.06;5153936;27;20205;-76
2021/11/23 08:31:03;;;;;;;16.10;14.50;;;;;;;4.48;100.00;101654.69;5154190;27;20195;-76
2021/11/23 08:33:30;;;;;;;17.13;15.23;;;;;;;4.45;100.00;101649.44;5153543;27;20266;-76
2021/11/23 08:35:56;;;;;;;16.33;14.73;;;;;;;4.49;100.00;101652.97;5153575;27;20225;-76
2021/11/23 08:38:24;;;;;;;16.20;14.80;;;;;;;4.53;100.00;101653.09;5153963;27;20228;-76
2021/11/23 08:40:50;;;;;;;16.30;14.60;;;;;;;4.56;100.00;101654.91;5153274;27;20570;-76
2021/11/23 08:43:17;;;;;;;14.97;13.60;;;;;;;4.72;100.00;101651.84;5153287;27;20218;-76
2021/11/23 08:45:45;;;;;;;15.57;14.07;;;;;;;4.77;100.00;101670.91;5153784;27;20262;-76
2021/11/23 08:48:12;;;;;;;13.90;12.77;;;;;;;4.78;100.00;101674.41;5153782;27;20210;-76
2021/11/23 08:50:38;;;;;;;14.87;13.37;;;;;;;4.77;100.00;101670.91;5152879;27;20198;-76
2021/11/23 08:53:08;;;;;;;14.70;13.47;;;;;;;4.84;100.00;101686.63;5153213;27;20231;-76
2021/11/23 08:55:37;;;;;;;14.40;13.03;;;;;;;4.74;100.00;101688.97;5153581;27;20679;-76
2021/11/23 08:58:04;;;;;;;19.77;17.77;;;;;;;4.66;100.00;101687.00;5145419;27;20740;-76
2021/11/23 09:00:30;;;;;;;17.20;15.60;;;;;;;4.64;100.00;101676.66;5153542;27;20225;-76
2021/11/23 09:02:58;;;;;;;18.93;15.53;;;;;;;4.69;100.00;101671.59;5152707;27;20245;-76
2021/11/23 09:05:26;;;;;;;15.60;13.97;;;;;;;4.70;100.00;101666.47;5152907;27;20198;-76
2021/11/23 09:07:53;;;;;;;17.27;15.50;;;;;;;4.63;100.00;101668.84;5152770;27;20688;-76
2021/11/23 09:10:23;;;;;;;19.23;16.13;;;;;;;4.73;100.00;101660.47;5153858;27;20194;-76
2021/11/23 09:12:53;;;;;;;18.17;16.37;;;;;;;4.74;100.00;101654.47;5152698;27;20217;-76
2021/11/23 09:15:20;;;;;;;17.50;14.80;;;;;;;4.70;100.00;101653.53;5153312;27;20552;-76
2021/11/23 09:17:46;;;;;;;17.83;15.50;;;;;;;4.72;100.00;101648.41;5153035;27;20285;-77
2021/11/23 09:20:14;;;;;;;16.13;14.43;;;;;;;4.86;100.00;101644.41;5152383;27;20589;-76
2021/11/23 09:22:41;;;;;;;16.10;14.43;;;;;;;4.77;100.00;101637.28;5147778;27;20252;-76
2021/11/23 09:25:09;;;;;;;18.60;15.53;;;;;;;4.84;100.00;101638.34;5152631;27;20700;-76
2021/11/23 09:27:35;;;;;;;15.70;13.90;;;;;;;4.80;100.00;101649.44;5152506;27;20193;-76
2021/11/23 09:30:09;;;;;;;17.97;15.67;;;;;;;4.80;100.00;101654.63;5152604;27;20664;-76
2021/11/23 09:32:35;;;;;;;16.17;14.57;;;;;;;4.86;100.00;101648.72;5152601;27;20744;-76
2021/11/23 09:35:02;;;;;;;17.90;15.70;;;;;;;4.85;100.00;101646.97;5152712;27;20196;-76
2021/11/23 09:37:28;;;;;;;17.47;15.77;;;;;;;4.81;100.00;101645.16;5152969;27;20205;-76
2021/11/23 09:39:55;;;;;;;21.27;16.73;;;;;;;4.81;100.00;101643.41;5152915;27;20190;-76
2021/11/23 09:42:23;;;;;;;21.27;15.60;;;;;;;4.81;100.00;101645.16;5144333;27;20194;-76
2021/11/23 09:44:50;;;;;;;22.03;15.23;;;;;;;4.82;100.00;101639.16;5152989;27;20208;-76
2021/11/23 09:47:18;;;;;;;26.00;15.30;;;;;;;4.86;100.00;101639.25;5152573;27;20208;-76
2021/11/23 09:49:44;;;;;;;19.87;15.37;;;;;;;4.91;100.00;101637.63;5152328;27;20692;-77
2021/11/23 09:52:11;;;;;;;18.30;15.17;;;;;;;5.00;100.00;101639.56;5152028;27;20224;-77
2021/11/23 09:54:40;;;;;;;18.33;14.40;;;;;;;4.88;100.00;101644.47;5152750;27;20214;-76
2021/11/23 09:57:06;;;;;;;19.13;15.80;;;;;;;4.88;100.00;101634.97;5152551;27;20202;-76
2021/11/23 09:59:33;;;;;;;20.40;15.37;;;;;;;4.88;100.00;101627.22;5153050;27;20250;-76
2021/11/23 10:02:04;;;;;;;25.87;16.07;;;;;;;4.82;100.00;101627.09;5154115;27;20204;-76
2021/11/23 10:04:33;;;;;;;25.67;16.13;;;;;;;4.80;100.00;101618.41;5154448;27;20696;-76
2021/11/23 10:07:01;;;;;;;25.37;16.07;;;;;;;4.87;100.00;101609.94;5152400;27;20224;-76
2021/11/23 10:09:31;;;;;;;31.30;16.63;;;;;;;4.85;100.00;101613.34;5154320;27;20226;-76
2021/11/23 10:12:14;;;;;;;25.07;17.07;;;;;;;4.91;100.00;101595.38;5152581;27;20807;-76
2021/11/23 10:14:40;;;;;;;20.50;16.70;;;;;;;4.96;100.00;101591.19;5153093;27;20804;-76
2021/11/23 10:17:24;;;;;;;28.13;16.47;;;;;;;5.05;100.00;101580.16;5152818;27;20235;-76
2021/11/23 10:19:52;;;;;;;26.23;16.63;;;;;;;5.19;100.00;101578.72;5152832;27;20213;-77
2021/11/23 10:22:30;;;;;;;19.97;15.70;;;;;;;5.16;100.00;101597.66;5152118;27;20256;-76
2021/11/23 10:24:59;;;;;;;18.07;14.67;;;;;;;5.08;100.00;101606.97;5152917;27;20227;-76
2021/11/23 10:27:25;;;;;;;21.53;14.37;;;;;;;5.16;100.00;101617.50;5152771;27;20217;-76
2021/11/23 10:29:53;;;;;;;18.40;15.20;;;;;;;5.26;100.00;101616.00;5153529;27;20202;-76
2021/11/23 10:32:19;;;;;;;16.27;14.47;;;;;;;5.17;100.00;101617.56;5153300;27;20325;-76
2021/11/23 10:34:46;;;;;;;18.27;14.73;;;;;;;5.26;100.00;101627.22;5152881;27;20216;-76
2021/11/23 10:37:30;;;;;;;17.07;15.40;;;;;;;5.34;100.00;101629.97;5152551;27;20263;-76
2021/11/23 10:40:10;;;;;;;17.93;15.30;;;;;;;5.36;100.00;101631.75;5154225;27;20235;-77
2021/11/23 10:42:37;;;;;;;19.20;14.00;;;;;;;5.55;100.00;101630.44;5156453;27;20207;-76
2021/11/23 10:45:08;;;;;;;14.53;13.00;;;;;;;5.49;100.00;101637.19;5156579;27;20258;-76
2021/11/23 10:47:36;;;;;;;14.23;12.83;;;;;;;5.46;100.00;101656.13;5156498;27;20216;-76
2021/11/23 10:50:06;;;;;;;14.17;12.67;;;;;;;5.65;100.00;101664.28;5152108;27;20232;-76
2021/11/23 10:52:38;;;;;;;14.03;12.70;;;;;;;5.71;100.00;101669.63;5155888;27;20209;-76
2021/11/23 10:55:08;;;;;;;14.37;12.90;;;;;;;5.72;100.00;101680.00;5156334;27;20576;-76
2021/11/23 10:57:40;;;;;;;15.07;12.90;;;;;;;5.83;100.00;101690.59;5154977;27;20223;-76
2021/11/23 11:00:08;;;;;;;13.13;11.77;;;;;;;5.70;100.00;101697.22;5156389;27;20285;-76
2021/11/23 11:02:37;;;;;;;13.53;12.23;;;;;;;5.68;100.00;101711.00;5153795;27;20627;-76
2021/11/23 11:05:03;;;;;;;13.33;11.80;;;;;;;5.78;100.00;101713.78;5154750;27;20248;-76
2021/11/23 11:07:30;;;;;;;13.03;11.70;;;;;;;5.72;100.00;101710.22;5155561;27;20202;-77
2021/11/23 11:09:59;;;;;;;13.53;11.47;;;;;;;5.82;100.00;101716.47;5155785;27;20240;-76
2021/11/23 11:12:25;;;;;;;11.77;10.73;;;;;;;5.79;100.00;101725.06;5155237;27;20202;-76
2021/11/23 11:14:55;;;;;;;12.33;10.47;;;;;;;5.81;99.92;101738.03;5156727;27;20676;-75
2021/11/23 11:17:24;;;;;;;14.67;10.50;;;;;;;6.01;99.86;101747.16;5155368;27;20217;-76
2021/11/23 11:19:52;;;;;;;11.17;10.17;;;;;;;5.95;99.04;101767.75;5150905;27;20677;-75